Time;durP1;ratioP1;P1;durP2;ratioP2;P2;SDS_P1;SDS_P2;PMS_P1;PMS_P2;Temp;Humidity;BMP_temperature;BMP_pressure;BME280_temperature;BME280_humidity;BME280_pressure;Samples;Min_cycle;Max_cycle;Signal;HPM_P1;HPM_P2
2022/07/01 00:01:28;;;;;;;1.63;1.00;;;;;;;14.86;100.00;98214.91;5135028;27;20216;-65
2022/07/01 00:03:55;;;;;;;1.97;1.43;;;;;;;14.93;100.00;98205.41;5121663;27;20238;-65
2022/07/01 00:06:22;;;;;;;2.13;1.00;;;;;;;14.98;100.00;98204.03;5135263;27;20212;-65
2022/07/01 00:08:48;;;;;;;1.47;0.87;;;;;;;15.00;100.00;98203.91;5134824;27;20299;-65
2022/07/01 00:11:15;;;;;;;1.90;1.20;;;;;;;15.04;100.00;98219.47;5135067;27;20221;-64
2022/07/01 00:13:42;;;;;;;2.20;1.10;;;;;;;15.09;100.00;98229.75;5135297;27;20217;-65
2022/07/01 00:16:08;;;;;;;1.80;1.10;;;;;;;15.07;100.00;98224.56;5134986;27;20214;-64
2022/07/01 00:18:36;;;;;;;1.73;1.10;;;;;;;15.02;100.00;98232.09;5135167;27;20213;-65
2022/07/01 00:21:03;;;;;;;1.37;1.10;;;;;;;15.01;100.00;98229.53;5132315;27;20239;-64
2022/07/01 00:23:30;;;;;;;1.20;1.10;;;;;;;14.91;100.00;98226.81;5134886;27;20216;-64
2022/07/01 00:25:57;;;;;;;1.40;1.00;;;;;;;14.88;100.00;98224.44;5134584;27;20292;-63
2022/07/01 00:28:24;;;;;;;1.00;0.90;;;;;;;14.85;100.00;98219.34;5134870;27;20209;-62
2022/07/01 00:30:50;;;;;;;1.73;1.10;;;;;;;14.89;100.00;98225.25;5134783;27;20312;-62
2022/07/01 00:33:17;;;;;;;1.80;0.90;;;;;;;14.91;100.00;98236.63;5126000;27;20210;-62
2022/07/01 00:35:45;;;;;;;1.27;0.90;;;;;;;14.91;100.00;98239.31;5134383;27;20247;-62
2022/07/01 00:38:11;;;;;;;2.50;1.00;;;;;;;14.94;100.00;98239.03;5134329;27;20243;-62
2022/07/01 00:40:38;;;;;;;0.90;0.90;;;;;;;14.94;100.00;98236.38;5134380;27;20233;-62
2022/07/01 00:43:04;;;;;;;0.70;0.70;;;;;;;14.89;100.00;98230.59;5134605;27;20213;-62
2022/07/01 00:45:31;;;;;;;2.93;0.90;;;;;;;14.89;100.00;98236.75;5134313;27;20252;-62
2022/07/01 00:47:58;;;;;;;0.87;0.70;;;;;;;14.93;100.00;98232.03;5132589;27;20216;-63
2022/07/01 00:50:24;;;;;;;1.30;0.80;;;;;;;14.93;100.00;98218.72;5134475;27;20227;-63
2022/07/01 00:52:52;;;;;;;3.07;1.03;;;;;;;14.90;100.00;98216.34;5134123;27;20221;-63
2022/07/01 00:55:19;;;;;;;2.00;1.03;;;;;;;14.86;100.00;98209.56;5134360;27;20215;-63
2022/07/01 00:57:46;;;;;;;1.17;0.80;;;;;;;14.72;100.00;98196.59;5133879;27;20682;-63
2022/07/01 01:00:15;;;;;;;0.97;0.87;;;;;;;14.67;100.00;98204.94;5134016;27;20233;-63
2022/07/01 01:02:42;;;;;;;2.17;0.90;;;;;;;14.66;100.00;98203.28;5132030;27;20219;-62
2022/07/01 01:05:10;;;;;;;2.30;0.83;;;;;;;14.70;100.00;98211.84;5134253;27;20213;-64
2022/07/01 01:07:37;;;;;;;0.80;0.80;;;;;;;14.61;100.00;98202.81;5133853;27;20678;-64
2022/07/01 01:10:06;;;;;;;1.00;0.90;;;;;;;14.59;100.00;98198.59;5133623;27;20217;-64
2022/07/01 01:12:34;;;;;;;3.00;0.93;;;;;;;14.56;100.00;98185.56;5130467;27;20585;-63
2022/07/01 01:15:00;;;;;;;2.20;0.90;;;;;;;14.49;100.00;98185.22;5134070;27;20213;-63
2022/07/01 01:17:28;;;;;;;1.17;0.90;;;;;;;14.48;100.00;98193.34;5133659;27;20300;-62
2022/07/01 01:19:54;;;;;;;1.37;0.70;;;;;;;14.50;100.00;98186.06;5133490;27;20233;-63
2022/07/01 01:22:22;;;;;;;1.50;0.90;;;;;;;14.49;100.00;98197.69;5133602;27;20216;-63
2022/07/01 01:24:49;;;;;;;1.07;0.80;;;;;;;14.43;100.00;98184.91;5133544;27;20235;-63
2022/07/01 01:27:17;;;;;;;2.80;1.00;;;;;;;14.45;100.00;98188.28;5133691;27;20227;-62
2022/07/01 01:29:44;;;;;;;1.40;1.30;;;;;;;14.46;100.00;98190.81;5133331;27;20213;-62
2022/07/01 01:32:11;;;;;;;0.90;0.70;;;;;;;14.41;100.00;98193.00;5131620;27;20211;-62
2022/07/01 01:34:39;;;;;;;0.70;0.70;;;;;;;14.42;100.00;98173.41;5133455;27;20209;-63
2022/07/01 01:37:07;;;;;;;1.13;0.93;;;;;;;14.38;100.00;98187.09;5133665;27;20244;-64
2022/07/01 01:39:36;;;;;;;1.00;0.80;;;;;;;14.35;100.00;98174.91;5131922;28;20216;-63
2022/07/01 01:42:04;;;;;;;1.43;0.80;;;;;;;14.35;100.00;98168.75;5133525;28;20212;-63
2022/07/01 01:44:30;;;;;;;1.67;0.73;;;;;;;14.31;100.00;98169.97;5133521;28;20231;-63
2022/07/01 01:46:57;;;;;;;1.93;1.00;;;;;;;14.29;100.00;98158.63;5130279;28;20325;-64
2022/07/01 01:49:23;;;;;;;0.80;0.80;;;;;;;14.32;100.00;98158.38;5130133;28;20209;-64
2022/07/01 01:51:50;;;;;;;0.90;0.90;;;;;;;14.32;100.00;98148.59;5131456;28;20216;-63
2022/07/01 01:54:16;;;;;;;1.13;1.00;;;;;;;14.31;100.00;98138.91;5133521;28;20213;-64
2022/07/01 01:56:44;;;;;;;4.10;0.90;;;;;;;14.23;100.00;98137.88;5133542;28;20213;-64
2022/07/01 01:59:12;;;;;;;1.80;0.80;;;;;;;14.29;100.00;98134.72;5133469;28;20543;-64
2022/07/01 02:01:39;;;;;;;0.80;0.80;;;;;;;14.31;100.00;98127.44;5133461;28;20281;-64
2022/07/01 02:04:05;;;;;;;1.00;0.87;;;;;;;14.31;100.00;98122.13;5133483;28;20220;-65
2022/07/01 02:06:32;;;;;;;1.33;1.00;;;;;;;14.29;100.00;98113.44;5131908;28;20253;-65
2022/07/01 02:08:58;;;;;;;1.17;0.80;;;;;;;14.32;100.00;98102.53;5133459;28;20238;-65
2022/07/01 02:11:25;;;;;;;1.27;0.90;;;;;;;14.33;100.00;98096.25;5132694;28;20215;-65
2022/07/01 02:13:53;;;;;;;1.77;1.10;;;;;;;14.33;100.00;98096.25;5133157;28;20583;-66
2022/07/01 02:16:19;;;;;;;1.93;0.90;;;;;;;14.30;100.00;98093.84;5133017;28;20669;-66
2022/07/01 02:18:46;;;;;;;1.10;1.00;;;;;;;14.28;100.00;98087.81;5133344;28;20217;-65
2022/07/01 02:21:12;;;;;;;1.40;1.00;;;;;;;14.21;100.00;98090.16;5132721;28;20789;-66
2022/07/01 02:23:39;;;;;;;1.30;1.20;;;;;;;14.20;100.00;98093.78;5133085;28;20227;-66
2022/07/01 02:26:06;;;;;;;2.13;1.30;;;;;;;14.20;100.00;98084.97;5133307;28;20217;-66
2022/07/01 02:28:33;;;;;;;2.53;1.00;;;;;;;14.19;100.00;98084.09;5133228;28;20217;-65
2022/07/01 02:31:02;;;;;;;1.20;1.10;;;;;;;14.09;100.00;98090.28;5131099;28;20252;-64
2022/07/01 02:33:29;;;;;;;1.73;0.90;;;;;;;14.06;100.00;98079.94;5132882;28;20210;-65
2022/07/01 02:35:55;;;;;;;1.33;0.97;;;;;;;14.02;100.00;98078.50;5123882;28;20266;-66
2022/07/01 02:38:22;;;;;;;1.30;1.20;;;;;;;14.03;100.00;98085.50;5133286;28;20242;-66
2022/07/01 02:40:49;;;;;;;1.63;1.17;;;;;;;14.06;100.00;98093.22;5132512;28;20239;-67
2022/07/01 02:43:16;;;;;;;2.10;1.00;;;;;;;14.01;100.00;98093.63;5132705;27;20211;-67
2022/07/01 02:45:42;;;;;;;1.40;1.20;;;;;;;14.07;100.00;98102.88;5135999;27;20300;-68
2022/07/01 02:48:10;;;;;;;1.47;1.10;;;;;;;14.15;100.00;98097.75;5136445;27;20295;-67
2022/07/01 02:50:37;;;;;;;1.87;1.33;;;;;;;14.21;100.00;98110.56;5136739;27;20212;-67
2022/07/01 02:53:04;;;;;;;2.30;1.13;;;;;;;14.15;100.00;98122.53;5122952;27;20216;-68
2022/07/01 02:55:30;;;;;;;1.40;1.17;;;;;;;14.14;100.00;98120.00;5136659;27;20211;-69
2022/07/01 02:57:57;;;;;;;0.90;0.90;;;;;;;14.09;100.00;98116.88;5134523;27;20211;-69
2022/07/01 03:00:25;;;;;;;2.17;0.87;;;;;;;14.04;100.00;98113.75;5136183;27;20332;-69
2022/07/01 03:02:52;;;;;;;1.40;1.00;;;;;;;14.04;100.00;98125.25;5131312;27;20224;-69
2022/07/01 03:05:20;;;;;;;1.03;0.90;;;;;;;14.12;100.00;98133.41;5136594;27;20213;-69
2022/07/01 03:07:46;;;;;;;2.13;0.90;;;;;;;14.18;100.00;98138.22;5136085;27;20222;-70
2022/07/01 03:10:13;;;;;;;1.20;1.10;;;;;;;14.20;100.00;98140.78;5136445;27;20623;-69
2022/07/01 03:12:40;;;;;;;0.87;0.70;;;;;;;14.19;100.00;98144.41;5136226;27;20238;-70
2022/07/01 03:15:09;;;;;;;0.97;0.97;;;;;;;14.19;100.00;98144.41;5135937;27;20209;-70
2022/07/01 03:17:37;;;;;;;1.67;1.00;;;;;;;14.18;100.00;98148.00;5135827;27;20212;-70
2022/07/01 03:20:05;;;;;;;1.57;0.97;;;;;;;14.25;100.00;98149.22;5135734;27;20364;-70
2022/07/01 03:22:33;;;;;;;1.43;0.80;;;;;;;14.27;100.00;98157.91;5135853;27;20223;-69
2022/07/01 03:25:00;;;;;;;1.23;1.03;;;;;;;14.33;100.00;98165.38;5134900;27;20300;-69
2022/07/01 03:27:27;;;;;;;0.80;0.80;;;;;;;14.45;100.00;98170.50;5136014;27;20213;-69
2022/07/01 03:29:54;;;;;;;0.90;0.87;;;;;;;14.51;100.00;98179.78;5135781;27;20219;-69
2022/07/01 03:32:20;;;;;;;1.30;1.20;;;;;;;14.53;100.00;98175.16;5135615;27;20215;-69
2022/07/01 03:34:49;;;;;;;3.33;1.07;;;;;;;14.48;100.00;98167.59;5135833;27;20209;-69
2022/07/01 03:37:17;;;;;;;1.30;1.20;;;;;;;14.52;100.00;98158.38;5135874;27;20604;-69
2022/07/01 03:39:46;;;;;;;1.00;1.00;;;;;;;14.57;100.00;98182.78;5135373;27;20301;-69
2022/07/01 03:42:12;;;;;;;2.30;1.10;;;;;;;14.62;100.00;98206.31;5121914;27;20235;-69
2022/07/01 03:44:39;;;;;;;1.07;0.97;;;;;;;14.65;100.00;98212.22;5135582;27;20216;-69
2022/07/01 03:47:06;;;;;;;2.57;1.10;;;;;;;14.68;100.00;98211.13;5135571;27;20242;-69
2022/07/01 03:49:33;;;;;;;1.80;1.23;;;;;;;14.67;100.00;98220.09;5133816;27;20295;-68
2022/07/01 03:52:00;;;;;;;2.00;1.40;;;;;;;14.71;100.00;98226.81;5135534;27;20576;-69
2022/07/01 03:54:32;;;;;;;2.47;1.30;;;;;;;14.73;100.00;98240.84;5135490;27;20212;-70
2022/07/01 03:57:01;;;;;;;1.70;1.30;;;;;;;14.72;100.00;98237.34;5135280;27;20218;-70
2022/07/01 03:59:29;;;;;;;2.20;1.20;;;;;;;14.72;100.00;98244.50;5135099;27;20212;-69
2022/07/01 04:01:57;;;;;;;1.27;1.17;;;;;;;14.73;100.00;98248.84;5135217;27;20607;-70
2022/07/01 04:04:24;;;;;;;2.23;1.20;;;;;;;14.79;100.00;98261.63;5135158;27;20222;-69
2022/07/01 04:06:51;;;;;;;1.37;1.17;;;;;;;14.79;100.00;98257.13;5135161;27;20222;-70
2022/07/01 04:09:19;;;;;;;1.30;1.20;;;;;;;14.81;100.00;98260.53;5134927;27;20704;-70
2022/07/01 04:11:48;;;;;;;1.30;1.20;;;;;;;14.77;100.00;98253.75;5135104;27;20575;-70
2022/07/01 04:14:16;;;;;;;3.30;1.17;;;;;;;14.71;100.00;98274.69;5135113;27;20223;-70
2022/07/01 04:16:45;;;;;;;1.67;1.57;;;;;;;14.72;100.00;98293.22;5131209;27;20696;-70
2022/07/01 04:19:12;;;;;;;2.83;2.00;;;;;;;14.63;100.00;98287.81;5134154;27;20220;-67
2022/07/01 04:24:24;;;;;;;2.20;1.50;;;;;;;14.47;100.00;98304.19;5134882;27;20216;-67
2022/07/01 04:26:51;;;;;;;2.00;1.80;;;;;;;14.44;100.00;98314.25;5134767;27;20227;-67
2022/07/01 04:29:20;;;;;;;1.97;1.80;;;;;;;14.38;100.00;98320.06;5134830;27;20215;-67
2022/07/01 04:31:46;;;;;;;1.70;1.60;;;;;;;14.35;100.00;98320.31;5134733;27;20209;-67
2022/07/01 04:34:13;;;;;;;2.07;1.90;;;;;;;14.36;100.00;98338.78;5134742;27;20216;-67
2022/07/01 04:36:40;;;;;;;2.00;1.80;;;;;;;14.36;100.00;98333.47;5134455;27;20617;-67
2022/07/01 04:39:07;;;;;;;2.10;1.90;;;;;;;14.41;100.00;98325.97;5134525;27;20209;-68
2022/07/01 04:44:19;;;;;;;2.10;1.90;;;;;;;14.48;100.00;98331.66;5134316;27;20282;-68
2022/07/01 04:46:46;;;;;;;2.77;1.97;;;;;;;14.46;100.00;98329.09;5134065;27;20699;-68
2022/07/01 04:49:12;;;;;;;2.67;1.70;;;;;;;14.43;100.00;98323.19;5134502;27;20232;-66
2022/07/01 04:51:39;;;;;;;2.33;2.00;;;;;;;14.37;100.00;98313.06;5134022;27;20213;-68
2022/07/01 04:54:07;;;;;;;2.53;2.10;;;;;;;14.33;100.00;98317.78;5134162;27;20209;-67
2022/07/01 04:56:34;;;;;;;2.43;2.23;;;;;;;14.33;100.00;98320.44;5133788;27;20212;-67
2022/07/01 04:59:01;;;;;;;2.37;2.17;;;;;;;14.34;100.00;98323.91;5133927;27;20684;-67
2022/07/01 05:01:30;;;;;;;2.53;2.27;;;;;;;14.34;100.00;98324.78;5134220;27;20245;-67
2022/07/01 05:03:57;;;;;;;3.63;2.20;;;;;;;14.34;100.00;98323.91;5134178;27;20209;-67
2022/07/01 05:06:24;;;;;;;2.87;2.47;;;;;;;14.36;100.00;98329.97;5133479;27;20220;-68
2022/07/01 05:08:50;;;;;;;2.87;2.20;;;;;;;14.34;100.00;98329.25;5131998;27;20238;-67
2022/07/01 05:11:17;;;;;;;2.40;2.20;;;;;;;14.41;100.00;98327.75;5133965;27;20239;-67
2022/07/01 05:13:44;;;;;;;2.23;2.03;;;;;;;14.32;100.00;98333.84;5133950;27;20212;-67
2022/07/01 05:16:10;;;;;;;3.83;2.40;;;;;;;14.30;100.00;98328.66;5133796;27;20223;-67
2022/07/01 05:24:08;;;;;;;2.50;2.30;;;;;;;14.23;100.00;98353.22;5133559;27;20726;-67
2022/07/01 05:26:34;;;;;;;2.53;2.27;;;;;;;14.27;100.00;98354.63;5133713;27;20237;-67
2022/07/01 05:29:01;;;;;;;2.90;2.43;;;;;;;14.31;100.00;98350.78;5133556;27;20677;-66
2022/07/01 05:31:28;;;;;;;4.77;2.57;;;;;;;14.32;100.00;98349.81;5133709;27;20238;-65
2022/07/01 05:33:55;;;;;;;2.87;2.40;;;;;;;14.17;100.00;98348.34;5131384;27;20210;-64
2022/07/01 05:36:22;;;;;;;3.20;2.30;;;;;;;14.16;100.00;98342.19;5133553;27;20225;-64
2022/07/01 05:38:48;;;;;;;3.33;2.50;;;;;;;14.12;100.00;98326.59;5133414;27;20219;-64
2022/07/01 05:41:15;;;;;;;4.57;2.77;;;;;;;14.04;100.00;98315.72;5133716;28;20323;-65
2022/07/01 05:43:42;;;;;;;3.10;2.57;;;;;;;14.01;100.00;98327.47;5133158;28;20265;-66
2022/07/01 05:46:08;;;;;;;4.70;2.60;;;;;;;14.01;100.00;98337.25;5133198;28;20673;-65
2022/07/01 05:48:35;;;;;;;4.23;2.10;;;;;;;14.04;100.00;98337.00;5133626;28;20210;-66
2022/07/01 05:51:03;;;;;;;2.77;2.20;;;;;;;13.97;100.00;98351.72;5133804;28;20215;-67
2022/07/01 05:53:29;;;;;;;3.80;2.10;;;;;;;13.80;100.00;98336.28;5133703;28;20243;-64
2022/07/01 05:55:56;;;;;;;4.07;2.37;;;;;;;13.83;100.00;98336.03;5119627;28;20575;-65
2022/07/01 05:58:22;;;;;;;3.17;1.90;;;;;;;13.86;100.00;98341.97;5133842;28;20235;-65
2022/07/01 06:00:50;;;;;;;3.27;2.10;;;;;;;13.81;100.00;98341.47;5131817;28;20223;-66
2022/07/01 06:03:16;;;;;;;3.03;2.57;;;;;;;13.83;100.00;98344.03;5133337;28;20610;-67
2022/07/01 06:05:43;;;;;;;2.57;2.27;;;;;;;13.88;100.00;98344.50;5133235;28;20207;-67
2022/07/01 06:08:11;;;;;;;2.97;2.00;;;;;;;13.88;100.00;98341.84;5133431;28;20562;-68
2022/07/01 06:10:38;;;;;;;2.17;1.73;;;;;;;13.79;100.00;98338.09;5133519;28;20294;-67
2022/07/01 06:13:06;;;;;;;2.30;2.00;;;;;;;13.87;100.00;98335.69;5133184;28;20215;-64
2022/07/01 06:15:33;;;;;;;2.50;2.10;;;;;;;13.85;100.00;98342.06;5133182;28;20230;-63
2022/07/01 06:17:59;;;;;;;2.37;2.10;;;;;;;13.87;100.00;98340.16;5133178;27;20234;-64
2022/07/01 06:20:26;;;;;;;3.03;2.07;;;;;;;13.86;100.00;98347.28;5135968;27;20681;-67
2022/07/01 06:22:52;;;;;;;3.63;2.30;;;;;;;13.89;100.00;98351.50;5137284;27;20239;-66
2022/07/01 06:25:20;;;;;;;3.57;2.27;;;;;;;13.91;100.00;98360.19;5137231;27;20217;-66
2022/07/01 06:27:47;;;;;;;3.93;2.10;;;;;;;14.01;100.00;98363.81;5135106;27;20693;-65
2022/07/01 06:30:14;;;;;;;2.90;1.90;;;;;;;14.03;100.00;98364.53;5137251;27;20208;-65
2022/07/01 06:32:40;;;;;;;2.10;1.60;;;;;;;13.95;100.00;98365.16;5137006;27;20223;-65
2022/07/01 06:35:08;;;;;;;2.30;2.10;;;;;;;13.90;100.00;98371.78;5135525;27;20555;-67
2022/07/01 06:37:35;;;;;;;2.77;1.70;;;;;;;13.99;100.00;98371.09;5133736;27;20707;-67
2022/07/01 06:40:03;;;;;;;1.73;1.50;;;;;;;14.03;100.00;98367.19;5136088;27;20216;-66
2022/07/01 06:42:31;;;;;;;2.37;1.77;;;;;;;14.04;100.00;98372.41;5135995;27;20695;-65
2022/07/01 06:44:57;;;;;;;3.40;1.80;;;;;;;14.09;100.00;98367.56;5133592;27;20291;-65
2022/07/01 06:47:24;;;;;;;2.00;1.80;;;;;;;14.14;100.00;98381.34;5133820;27;20224;-65
2022/07/01 06:49:50;;;;;;;2.00;1.60;;;;;;;14.12;100.00;98387.75;5127820;27;20213;-64
2022/07/01 06:52:17;;;;;;;2.50;1.60;;;;;;;14.14;100.00;98391.13;5134550;27;20216;-65
2022/07/01 06:54:43;;;;;;;2.73;2.10;;;;;;;14.01;100.00;98377.97;5133688;27;20215;-66
2022/07/01 06:57:10;;;;;;;2.67;1.70;;;;;;;14.07;100.00;98380.16;5135496;27;20213;-66
2022/07/01 06:59:38;;;;;;;1.90;1.60;;;;;;;14.14;100.00;98386.66;5134607;27;20212;-66
2022/07/01 07:02:07;;;;;;;3.90;2.20;;;;;;;14.17;100.00;98390.88;5135551;27;20551;-65
2022/07/01 07:04:33;;;;;;;2.60;2.33;;;;;;;14.24;100.00;98400.09;5126214;27;20311;-63
2022/07/01 07:07:00;;;;;;;2.00;1.80;;;;;;;14.25;100.00;98399.94;5134789;27;20307;-66
2022/07/01 07:09:27;;;;;;;3.37;2.00;;;;;;;14.23;100.00;98401.91;5135116;27;20279;-66
2022/07/01 07:11:53;;;;;;;2.97;2.30;;;;;;;14.20;100.00;98404.81;5135143;27;20220;-67
2022/07/01 07:14:21;;;;;;;2.20;2.00;;;;;;;14.16;100.00;98411.28;5134131;27;20222;-64
2022/07/01 07:16:51;;;;;;;2.60;2.07;;;;;;;14.17;100.00;98412.97;5134706;27;20214;-66
2022/07/01 07:19:17;;;;;;;2.80;2.33;;;;;;;14.32;100.00;98421.59;5133636;27;20680;-66
2022/07/01 07:21:44;;;;;;;2.20;2.00;;;;;;;14.46;100.00;98426.66;5133883;27;20239;-64
2022/07/01 07:24:11;;;;;;;3.67;2.20;;;;;;;14.58;100.00;98429.19;5134651;27;20295;-66
2022/07/01 07:26:37;;;;;;;2.17;1.97;;;;;;;14.54;100.00;98417.09;5134588;27;20216;-66
2022/07/01 07:29:04;;;;;;;2.63;1.80;;;;;;;14.48;100.00;98422.06;5133723;27;20227;-64
2022/07/01 07:31:30;;;;;;;2.07;1.87;;;;;;;14.56;100.00;98432.94;5135448;27;20631;-64
2022/07/01 07:33:58;;;;;;;2.73;1.90;;;;;;;14.64;100.00;98427.81;5135923;27;20564;-64
2022/07/01 07:36:25;;;;;;;2.90;1.70;;;;;;;14.77;100.00;98433.84;5135815;27;20307;-63
2022/07/01 07:38:51;;;;;;;2.73;1.80;;;;;;;14.78;100.00;98441.72;5135964;27;20306;-63
2022/07/01 07:41:18;;;;;;;2.27;2.07;;;;;;;14.76;100.00;98426.84;5135929;27;20223;-62
2022/07/01 07:43:44;;;;;;;2.30;1.77;;;;;;;14.75;100.00;98427.81;5135723;27;20244;-63
2022/07/01 07:46:11;;;;;;;4.00;2.10;;;;;;;14.75;100.00;98422.50;5133110;27;20216;-63
2022/07/01 07:48:37;;;;;;;3.90;2.60;;;;;;;14.80;100.00;98428.28;5135352;27;20217;-63
2022/07/01 07:51:05;;;;;;;2.23;2.03;;;;;;;14.98;100.00;98432.94;5136065;27;20230;-63
2022/07/01 07:53:32;;;;;;;2.57;2.10;;;;;;;15.06;100.00;98432.31;5135775;27;20243;-64
2022/07/01 07:55:58;;;;;;;3.53;2.30;;;;;;;15.07;100.00;98410.03;5135685;27;20213;-64
2022/07/01 07:58:25;;;;;;;2.30;2.10;;;;;;;15.01;100.00;98421.19;5135503;27;20288;-65
2022/07/01 08:00:51;;;;;;;2.73;2.20;;;;;;;14.92;100.00;98427.28;5132046;27;20220;-65
2022/07/01 08:03:18;;;;;;;2.73;2.43;;;;;;;14.85;100.00;98428.75;5133851;27;20251;-66
2022/07/01 08:05:44;;;;;;;2.20;2.00;;;;;;;14.85;100.00;98431.44;5134885;27;20224;-64
2022/07/01 08:08:12;;;;;;;2.23;2.00;;;;;;;14.83;100.00;98428.03;5135510;27;20223;-66
2022/07/01 08:10:38;;;;;;;2.93;2.43;;;;;;;14.78;100.00;98424.91;5135145;27;20689;-65
2022/07/01 08:13:05;;;;;;;3.73;2.70;;;;;;;14.71;100.00;98437.00;5133916;27;20213;-64
2022/07/01 08:15:33;;;;;;;2.93;2.43;;;;;;;14.62;100.00;98443.06;5135367;27;20293;-64
2022/07/01 08:17:59;;;;;;;2.37;2.17;;;;;;;14.54;100.00;98443.69;5135234;27;20224;-64
2022/07/01 08:20:26;;;;;;;2.83;2.53;;;;;;;14.51;100.00;98446.59;5134992;27;20208;-64
2022/07/01 08:22:52;;;;;;;3.00;2.50;;;;;;;14.52;100.00;98452.75;5135094;27;20258;-64
2022/07/01 08:25:20;;;;;;;3.77;2.60;;;;;;;14.53;100.00;98446.47;5134942;27;20223;-65
2022/07/01 08:27:46;;;;;;;2.27;2.07;;;;;;;14.44;100.00;98458.72;5134863;27;20212;-65
2022/07/01 08:30:13;;;;;;;2.67;2.47;;;;;;;14.51;100.00;98459.91;5134760;27;20208;-65
2022/07/01 08:32:40;;;;;;;2.70;2.50;;;;;;;14.57;100.00;98458.56;5134699;27;20223;-65
2022/07/01 08:35:07;;;;;;;2.80;2.53;;;;;;;14.64;100.00;98465.06;5134794;27;20210;-65
2022/07/01 08:37:33;;;;;;;3.07;2.50;;;;;;;14.76;100.00;98480.91;5135076;27;20265;-65
2022/07/01 08:40:00;;;;;;;4.07;3.30;;;;;;;14.84;100.00;98481.13;5125463;27;20216;-64
2022/07/01 08:42:28;;;;;;;4.07;2.90;;;;;;;14.85;100.00;98484.66;5133538;27;20233;-64
2022/07/01 08:44:54;;;;;;;4.13;3.00;;;;;;;14.86;100.00;98486.34;5134690;27;20216;-65
2022/07/01 08:47:21;;;;;;;3.93;3.20;;;;;;;14.90;100.00;98487.78;5134526;27;20682;-64
2022/07/01 08:49:47;;;;;;;3.80;3.00;;;;;;;14.87;100.00;98488.88;5134462;27;20208;-63
2022/07/01 08:52:14;;;;;;;3.37;3.07;;;;;;;14.82;100.00;98492.84;5134357;27;20215;-63
2022/07/01 08:54:41;;;;;;;4.37;2.67;;;;;;;14.75;100.00;98499.66;5125601;27;20216;-63
2022/07/01 08:57:08;;;;;;;3.13;2.60;;;;;;;14.73;100.00;98490.94;5134384;27;20213;-63
2022/07/01 08:59:36;;;;;;;6.47;4.63;;;;;;;14.73;100.00;98496.28;5134015;27;20231;-64
2022/07/01 09:02:05;;;;;;;3.17;2.80;;;;;;;14.74;100.00;98492.66;5134204;27;20220;-64
2022/07/01 09:04:33;;;;;;;3.23;2.90;;;;;;;14.72;100.00;98495.41;5123855;27;20216;-64
2022/07/01 09:07:04;;;;;;;4.00;3.00;;;;;;;14.68;100.00;98494.00;5134206;27;20302;-65
2022/07/01 09:09:35;;;;;;;4.03;3.23;;;;;;;14.81;100.00;98499.16;5126713;27;20208;-65
2022/07/01 09:12:01;;;;;;;4.13;2.80;;;;;;;14.65;100.00;98496.88;5134129;27;20217;-66
2022/07/01 09:14:30;;;;;;;3.10;2.80;;;;;;;14.51;100.00;98491.81;5134156;27;20220;-65
2022/07/01 09:16:59;;;;;;;2.67;2.40;;;;;;;14.43;100.00;98496.06;5130062;27;20271;-64
2022/07/01 09:19:28;;;;;;;3.53;2.80;;;;;;;14.31;100.00;98497.00;5133625;27;20211;-64
2022/07/01 09:21:57;;;;;;;3.37;2.63;;;;;;;14.26;100.00;98496.53;5134105;27;20214;-65
2022/07/01 09:24:29;;;;;;;4.90;3.00;;;;;;;14.23;100.00;98496.78;5133965;27;20216;-66
2022/07/01 09:26:58;;;;;;;3.70;3.00;;;;;;;14.34;100.00;98478.13;5133599;27;20306;-64
2022/07/01 09:29:31;;;;;;;2.47;2.23;;;;;;;14.16;100.00;98463.59;5133907;27;20575;-64
2022/07/01 09:31:59;;;;;;;2.30;1.97;;;;;;;14.04;100.00;98480.50;5132004;27;20300;-65
2022/07/01 09:34:25;;;;;;;2.23;2.03;;;;;;;13.98;100.00;98494.25;5133826;27;20210;-64
2022/07/01 09:36:54;;;;;;;2.63;2.00;;;;;;;13.96;100.00;98493.53;5133868;27;20239;-63
2022/07/01 09:39:21;;;;;;;2.77;2.30;;;;;;;14.13;100.00;98504.56;5133470;27;20215;-63
2022/07/01 09:41:47;;;;;;;2.57;2.37;;;;;;;14.19;100.00;98512.09;5134047;28;20230;-61
2022/07/01 09:44:14;;;;;;;2.27;2.07;;;;;;;14.25;100.00;98516.09;5133734;28;20326;-61
2022/07/01 09:46:52;;;;;;;2.20;2.00;;;;;;;14.35;100.00;98509.13;5133931;28;20217;-61
2022/07/01 09:49:20;;;;;;;2.70;2.13;;;;;;;14.43;100.00;98498.72;5133664;28;20227;-62
2022/07/01 09:51:49;;;;;;;4.00;2.17;;;;;;;14.40;100.00;98494.47;5134009;28;20222;-62
2022/07/01 09:54:15;;;;;;;2.40;2.17;;;;;;;14.31;100.00;98487.19;5136543;27;20222;-63
2022/07/01 09:56:42;;;;;;;2.47;2.20;;;;;;;14.29;100.00;98496.28;5137744;27;20224;-62
2022/07/01 09:59:09;;;;;;;2.63;2.43;;;;;;;14.28;100.00;98494.56;5136391;27;20222;-62
2022/07/01 10:01:38;;;;;;;2.60;2.30;;;;;;;14.21;100.00;98488.06;5138064;27;20212;-62
2022/07/01 10:04:08;;;;;;;2.50;2.30;;;;;;;14.11;100.00;98503.84;5137727;27;20717;-63
2022/07/01 10:07:10;;;;;;;2.23;2.03;;;;;;;14.11;100.00;98500.34;5130627;27;20214;-63
2022/07/01 10:09:53;;;;;;;2.47;1.77;;;;;;;14.08;100.00;98520.03;5130640;27;20251;-63
2022/07/01 10:12:38;;;;;;;3.43;1.93;;;;;;;14.30;100.00;98519.25;5137738;27;20212;-64
2022/07/01 10:15:07;;;;;;;2.80;1.70;;;;;;;14.64;100.00;98502.31;5137730;27;20220;-65
2022/07/01 10:17:37;;;;;;;2.07;1.77;;;;;;;15.13;100.00;98516.88;5137983;27;20216;-65
2022/07/01 10:20:15;;;;;;;3.73;2.40;;;;;;;15.64;100.00;98527.78;5137709;27;20220;-66
2022/07/01 10:22:44;;;;;;;1.70;1.60;;;;;;;16.08;100.00;98529.22;5137822;27;20236;-65
2022/07/01 10:25:41;;;;;;;1.90;1.60;;;;;;;16.44;100.00;98530.56;5119804;27;20208;-66
2022/07/01 10:28:23;;;;;;;2.67;1.60;;;;;;;16.48;100.00;98532.88;5137383;27;20296;-66
2022/07/01 10:30:55;;;;;;;2.13;1.40;;;;;;;16.60;100.00;98536.28;5135553;27;20209;-65
2022/07/01 10:33:38;;;;;;;2.83;1.50;;;;;;;16.88;100.00;98536.41;5136187;27;20209;-66
2022/07/01 10:36:14;;;;;;;2.47;1.40;;;;;;;17.08;100.00;98537.31;5129462;27;20218;-67
2022/07/01 10:39:14;;;;;;;2.13;1.43;;;;;;;17.32;100.00;98541.28;5136871;27;20278;-66
2022/07/01 10:41:43;;;;;;;1.43;1.23;;;;;;;17.67;100.00;98541.66;5136480;27;20206;-66
2022/07/01 10:44:11;;;;;;;1.53;1.40;;;;;;;18.07;100.00;98538.81;5136164;27;20244;-66
2022/07/01 10:46:44;;;;;;;1.73;1.37;;;;;;;18.28;99.56;98548.38;5136203;27;20228;-67
2022/07/01 10:49:13;;;;;;;1.77;1.30;;;;;;;18.27;98.90;98556.53;5136829;27;20213;-67
2022/07/01 10:51:58;;;;;;;2.07;1.03;;;;;;;18.45;97.69;98555.69;5134939;27;20602;-67
2022/07/01 10:54:53;;;;;;;1.40;1.23;;;;;;;18.49;91.24;98573.16;5136690;27;20231;-67
2022/07/01 10:57:22;;;;;;;1.20;1.10;;;;;;;18.80;94.54;98571.94;5135317;27;20214;-66
2022/07/01 10:59:50;;;;;;;2.27;1.27;;;;;;;19.12;91.37;98572.34;5135699;27;20221;-67
2022/07/01 11:02:18;;;;;;;1.23;1.07;;;;;;;19.44;89.54;98578.13;5136463;27;20213;-68
2022/07/01 11:04:45;;;;;;;1.10;1.00;;;;;;;19.75;89.32;98570.59;5135558;27;20229;-67
2022/07/01 11:07:12;;;;;;;1.30;1.20;;;;;;;20.07;87.75;98577.16;5136216;27;20209;-67
2022/07/01 11:09:39;;;;;;;1.53;1.43;;;;;;;20.33;83.26;98578.03;5136082;27;20667;-67
2022/07/01 11:12:08;;;;;;;2.07;1.20;;;;;;;20.20;83.40;98572.22;5136377;27;20581;-68
2022/07/01 11:14:36;;;;;;;1.50;1.40;;;;;;;19.72;83.38;98576.25;5136605;27;20210;-68
2022/07/01 11:17:03;;;;;;;1.40;1.20;;;;;;;19.47;85.47;98564.44;5134586;27;20220;-67
2022/07/01 11:19:30;;;;;;;2.50;1.30;;;;;;;19.18;83.05;98563.72;5136423;27;20224;-68
2022/07/01 11:21:56;;;;;;;1.50;1.00;;;;;;;18.79;83.05;98564.91;5136690;27;20223;-68
2022/07/01 11:24:24;;;;;;;1.23;1.00;;;;;;;18.70;84.34;98560.41;5136445;27;20233;-68
2022/07/01 11:26:52;;;;;;;1.77;1.20;;;;;;;18.96;86.58;98558.75;5136511;27;20219;-66
2022/07/01 11:29:28;;;;;;;1.20;1.17;;;;;;;19.07;83.67;98557.72;5136602;27;20299;-68
2022/07/01 11:31:55;;;;;;;1.07;0.97;;;;;;;19.07;80.21;98557.72;5136208;27;20209;-68
2022/07/01 11:34:22;;;;;;;1.73;1.10;;;;;;;19.16;84.07;98557.69;5136004;27;20297;-68
2022/07/01 11:39:35;;;;;;;2.60;1.30;;;;;;;19.65;82.62;98557.25;5136140;27;20212;-68
2022/07/01 11:42:06;;;;;;;1.10;1.00;;;;;;;20.18;82.21;98563.47;5134148;27;20217;-68
2022/07/01 11:44:36;;;;;;;1.67;1.10;;;;;;;20.65;82.89;98556.78;5136140;27;20234;-68